Fairmont, California
Current Conditions -  °F | °C
As of 4:48 PM on Wednesday 26 Nov 2014 (Local Time) from KSDB Reporting Station
Clear Clear  
Wind Chill: 65°   Ceiling: Unl
Heat Index: 65°   Visibility: 10mi
Dew Point: 12°   Wind: 9mph
Humidity: 13%   Direction: 60°ENE
Pressure: 30.37"   Gusts: NA
Location:  34.8604°N, 118.583°W
Report Text: KSDB 270048Z AUTO 06008KT 10SM CLR 18/M11 A3037 RMK AO2 SLP244 T01831111
Loading
Personal Weather Stations






























Interactive Weather Map New forecast layout! Learn more

10-Day Weather Forecast

Advertisements
Track Severe Weather on mobile